METAR UND TAF INFORMATION
LFLC 241100Z AUTO 35009KT 9999 SCT020 BKN027 OVC034 17/12 Q1022 NOSIG

 FLUGHAFENKARTE

 RUNWAY INFORMATION
Runway 01 Runway length 2313 ft Runway width 197 ft
Runway elevation 1092 ft Runway displaced threshold 0 ft Runway heading 8
Runway 19 Runway length 2313 ft Runway width 197 ft
Runway elevation 1083 ft Runway displaced threshold 0 ft Runway heading 188
Runway 08 Runway length 9885 ft Runway width 148 ft
Runway elevation 1089 ft Runway displaced threshold 0 ft Runway heading 82
Runway 26 Runway length 9885 ft Runway width 148 ft
Runway elevation 1057 ft Runway displaced threshold 476 ft Runway heading 262
Runway 08L Runway length 2953 ft Runway width 161 ft
Runway elevation 1072 ft Runway displaced threshold 0 ft Runway heading 82
Runway 26R Runway length 2953 ft Runway width 161 ft
Runway elevation 1063 ft Runway displaced threshold 0 ft Runway heading 262

 AIRPORT FREQUENCIES
Type APP Name CLERMONT A Frequency 119.375 MHZ
Type APP Name CLERMONT A Frequency 122.225 MHZ
Type ATIS Name CLERMONT A Frequency 136.4 MHZ
Type FIS Name CLERMONT I Frequency 122.225 MHZ
Type GND Name CLERMONT G Frequency 121.95 MHZ
Type TWR Name CLERMONT T Frequency 118.625 MHZ

 AIRPORT NEAR NAVIGATION AIDS
Type VOR-DME Name Clermont Frequency 114350 KHZ